sensor_id;sensor_type;location;lat;lon;timestamp;temperature;humidity
54461;DHT22;69977;49.414;11.010;2023-05-20T00:00:24;14.50;99.90
54461;DHT22;69977;49.414;11.010;2023-05-20T00:02:50;14.50;99.90
54461;DHT22;69977;49.414;11.010;2023-05-20T00:05:17;14.50;99.90
54461;DHT22;69977;49.414;11.010;2023-05-20T00:07:43;14.50;99.90
54461;DHT22;69977;49.414;11.010;2023-05-20T00:10:09;14.50;99.90
54461;DHT22;69977;49.414;11.010;2023-05-20T00:12:37;14.50;99.90
54461;DHT22;69977;49.414;11.010;2023-05-20T00:15:03;14.50;99.90
54461;DHT22;69977;49.414;11.010;2023-05-20T00:17:29;14.50;99.90
54461;DHT22;69977;49.414;11.010;2023-05-20T00:19:55;14.50;99.90
54461;DHT22;69977;49.414;11.010;2023-05-20T00:22:21;14.50;99.90
54461;DHT22;69977;49.414;11.010;2023-05-20T00:24:47;14.50;99.90
54461;DHT22;69977;49.414;11.010;2023-05-20T00:27:12;14.50;99.90
54461;DHT22;69977;49.414;11.010;2023-05-20T00:29:38;14.50;99.90
54461;DHT22;69977;49.414;11.010;2023-05-20T00:32:04;14.50;99.90
54461;DHT22;69977;49.414;11.010;2023-05-20T00:34:30;14.50;99.90
54461;DHT22;69977;49.414;11.010;2023-05-20T00:36:56;14.50;99.90
54461;DHT22;69977;49.414;11.010;2023-05-20T00:39:21;14.50;99.90
54461;DHT22;69977;49.414;11.010;2023-05-20T00:41:47;14.50;99.90
54461;DHT22;69977;49.414;11.010;2023-05-20T00:44:13;14.50;99.90
54461;DHT22;69977;49.414;11.010;2023-05-20T00:46:39;14.50;99.90
54461;DHT22;69977;49.414;11.010;2023-05-20T00:49:04;14.50;99.90
54461;DHT22;69977;49.414;11.010;2023-05-20T00:51:31;14.50;99.90
54461;DHT22;69977;49.414;11.010;2023-05-20T00:53:57;14.60;99.90
54461;DHT22;69977;49.414;11.010;2023-05-20T00:56:23;14.50;99.90
54461;DHT22;69977;49.414;11.010;2023-05-20T00:58:51;14.60;99.90
54461;DHT22;69977;49.414;11.010;2023-05-20T01:01:17;14.50;99.90
54461;DHT22;69977;49.414;11.010;2023-05-20T01:03:43;14.50;99.90
54461;DHT22;69977;49.414;11.010;2023-05-20T01:06:09;14.60;99.90
54461;DHT22;69977;49.414;11.010;2023-05-20T01:08:34;14.50;99.90
54461;DHT22;69977;49.414;11.010;2023-05-20T01:11:07;14.50;99.90
54461;DHT22;69977;49.414;11.010;2023-05-20T01:13:44;14.60;99.90
54461;DHT22;69977;49.414;11.010;2023-05-20T01:16:12;14.60;99.90
54461;DHT22;69977;49.414;11.010;2023-05-20T01:18:41;14.60;99.90
54461;DHT22;69977;49.414;11.010;2023-05-20T01:21:10;14.60;99.90
54461;DHT22;69977;49.414;11.010;2023-05-20T01:23:40;14.60;99.90
54461;DHT22;69977;49.414;11.010;2023-05-20T01:26:08;14.60;99.90
54461;DHT22;69977;49.414;11.010;2023-05-20T01:28:36;14.60;99.90
54461;DHT22;69977;49.414;11.010;2023-05-20T01:31:04;14.60;99.90
54461;DHT22;69977;49.414;11.010;2023-05-20T01:33:35;14.60;99.90
54461;DHT22;69977;49.414;11.010;2023-05-20T01:36:01;14.60;99.90
54461;DHT22;69977;49.414;11.010;2023-05-20T01:38:27;14.60;99.90
54461;DHT22;69977;49.414;11.010;2023-05-20T01:40:54;14.60;99.90
54461;DHT22;69977;49.414;11.010;2023-05-20T01:43:23;14.50;99.90
54461;DHT22;69977;49.414;11.010;2023-05-20T01:45:50;14.40;99.90
54461;DHT22;69977;49.414;11.010;2023-05-20T01:48:15;14.50;99.90
54461;DHT22;69977;49.414;11.010;2023-05-20T01:50:42;14.50;99.90
54461;DHT22;69977;49.414;11.010;2023-05-20T01:53:09;14.50;99.90
54461;DHT22;69977;49.414;11.010;2023-05-20T01:55:35;14.50;99.90
54461;DHT22;69977;49.414;11.010;2023-05-20T01:58:01;14.50;99.90
54461;DHT22;69977;49.414;11.010;2023-05-20T02:00:28;14.50;99.90
54461;DHT22;69977;49.414;11.010;2023-05-20T02:02:53;14.50;99.90
54461;DHT22;69977;49.414;11.010;2023-05-20T02:05:19;14.50;99.90
54461;DHT22;69977;49.414;11.010;2023-05-20T02:07:45;14.50;99.90
54461;DHT22;69977;49.414;11.010;2023-05-20T02:10:11;14.40;99.90
54461;DHT22;69977;49.414;11.010;2023-05-20T02:12:37;14.40;99.90
54461;DHT22;69977;49.414;11.010;2023-05-20T02:15:04;14.30;99.90
54461;DHT22;69977;49.414;11.010;2023-05-20T02:17:30;14.20;99.90
54461;DHT22;69977;49.414;11.010;2023-05-20T02:19:56;14.20;99.90
54461;DHT22;69977;49.414;11.010;2023-05-20T02:22:22;14.20;99.90
54461;DHT22;69977;49.414;11.010;2023-05-20T02:24:47;14.20;99.90
54461;DHT22;69977;49.414;11.010;2023-05-20T02:27:14;14.20;99.90
54461;DHT22;69977;49.414;11.010;2023-05-20T02:29:42;14.20;99.90
54461;DHT22;69977;49.414;11.010;2023-05-20T02:32:07;14.20;99.90
54461;DHT22;69977;49.414;11.010;2023-05-20T02:34:33;14.20;99.90
54461;DHT22;69977;49.414;11.010;2023-05-20T02:36:59;14.20;99.90
54461;DHT22;69977;49.414;11.010;2023-05-20T02:39:26;14.10;99.90
54461;DHT22;69977;49.414;11.010;2023-05-20T02:41:53;14.10;99.90
54461;DHT22;69977;49.414;11.010;2023-05-20T02:44:18;14.20;99.90
54461;DHT22;69977;49.414;11.010;2023-05-20T02:46:44;14.10;99.90
54461;DHT22;69977;49.414;11.010;2023-05-20T02:49:10;14.10;99.90
54461;DHT22;69977;49.414;11.010;2023-05-20T02:51:36;14.10;99.90
54461;DHT22;69977;49.414;11.010;2023-05-20T02:54:01;14.10;99.90
54461;DHT22;69977;49.414;11.010;2023-05-20T02:56:28;13.90;99.90
54461;DHT22;69977;49.414;11.010;2023-05-20T02:58:53;13.90;99.90
54461;DHT22;69977;49.414;11.010;2023-05-20T03:01:19;13.90;99.90
54461;DHT22;69977;49.414;11.010;2023-05-20T03:03:45;14.00;99.90
54461;DHT22;69977;49.414;11.010;2023-05-20T03:06:11;14.00;99.90
54461;DHT22;69977;49.414;11.010;2023-05-20T03:08:37;14.00;99.90
54461;DHT22;69977;49.414;11.010;2023-05-20T03:11:04;14.00;99.90
54461;DHT22;69977;49.414;11.010;2023-05-20T03:13:30;14.00;99.90
54461;DHT22;69977;49.414;11.010;2023-05-20T03:15:57;14.00;99.90
54461;DHT22;69977;49.414;11.010;2023-05-20T03:18:23;14.00;99.90
54461;DHT22;69977;49.414;11.010;2023-05-20T03:20:48;14.00;99.90
54461;DHT22;69977;49.414;11.010;2023-05-20T03:23:15;14.00;99.90
54461;DHT22;69977;49.414;11.010;2023-05-20T03:25:40;14.00;99.90
54461;DHT22;69977;49.414;11.010;2023-05-20T03:28:07;13.90;99.90
54461;DHT22;69977;49.414;11.010;2023-05-20T03:30:35;13.90;99.90
54461;DHT22;69977;49.414;11.010;2023-05-20T03:33:01;13.90;99.90
54461;DHT22;69977;49.414;11.010;2023-05-20T03:35:27;13.90;99.90
54461;DHT22;69977;49.414;11.010;2023-05-20T03:37:54;13.90;99.90
54461;DHT22;69977;49.414;11.010;2023-05-20T03:40:22;13.90;99.90
54461;DHT22;69977;49.414;11.010;2023-05-20T03:42:48;13.90;99.90
54461;DHT22;69977;49.414;11.010;2023-05-20T03:45:17;13.90;99.90
54461;DHT22;69977;49.414;11.010;2023-05-20T03:47:52;13.90;99.90
54461;DHT22;69977;49.414;11.010;2023-05-20T03:50:18;13.90;99.90
54461;DHT22;69977;49.414;11.010;2023-05-20T03:52:44;14.00;99.90
54461;DHT22;69977;49.414;11.010;2023-05-20T03:55:11;13.90;99.90
54461;DHT22;69977;49.414;11.010;2023-05-20T03:57:37;13.80;99.90
54461;DHT22;69977;49.414;11.010;2023-05-20T04:00:03;13.80;99.90
54461;DHT22;69977;49.414;11.010;2023-05-20T04:02:42;13.80;99.90
54461;DHT22;69977;49.414;11.010;2023-05-20T04:05:08;13.80;99.90
54461;DHT22;69977;49.414;11.010;2023-05-20T04:07:36;13.80;99.90
54461;DHT22;69977;49.414;11.010;2023-05-20T04:10:03;13.80;99.90
54461;DHT22;69977;49.414;11.010;2023-05-20T04:12:29;13.90;99.90
54461;DHT22;69977;49.414;11.010;2023-05-20T04:15:00;13.80;99.90
54461;DHT22;69977;49.414;11.010;2023-05-20T04:17:31;13.90;99.90
54461;DHT22;69977;49.414;11.010;2023-05-20T04:19:58;13.80;99.90
54461;DHT22;69977;49.414;11.010;2023-05-20T04:22:25;13.90;99.90
54461;DHT22;69977;49.414;11.010;2023-05-20T04:24:51;13.90;99.90
54461;DHT22;69977;49.414;11.010;2023-05-20T04:27:17;13.90;99.90
54461;DHT22;69977;49.414;11.010;2023-05-20T04:29:42;13.90;99.90
54461;DHT22;69977;49.414;11.010;2023-05-20T04:32:13;13.90;99.90
54461;DHT22;69977;49.414;11.010;2023-05-20T04:34:39;13.90;99.90
54461;DHT22;69977;49.414;11.010;2023-05-20T04:37:05;13.90;99.90
54461;DHT22;69977;49.414;11.010;2023-05-20T04:39:34;13.90;99.90
54461;DHT22;69977;49.414;11.010;2023-05-20T04:42:04;13.90;99.90
54461;DHT22;69977;49.414;11.010;2023-05-20T04:44:31;13.90;99.90
54461;DHT22;69977;49.414;11.010;2023-05-20T04:46:57;14.00;99.90
54461;DHT22;69977;49.414;11.010;2023-05-20T04:49:24;14.00;99.90
54461;DHT22;69977;49.414;11.010;2023-05-20T04:51:56;14.00;99.90
54461;DHT22;69977;49.414;11.010;2023-05-20T04:54:23;14.00;99.90
54461;DHT22;69977;49.414;11.010;2023-05-20T04:56:49;14.10;99.90
54461;DHT22;69977;49.414;11.010;2023-05-20T04:59:15;14.00;99.90
54461;DHT22;69977;49.414;11.010;2023-05-20T05:01:41;14.00;99.90
54461;DHT22;69977;49.414;11.010;2023-05-20T05:04:07;14.10;99.90
54461;DHT22;69977;49.414;11.010;2023-05-20T05:06:34;14.10;99.90
54461;DHT22;69977;49.414;11.010;2023-05-20T05:09:01;14.10;99.90
54461;DHT22;69977;49.414;11.010;2023-05-20T05:11:27;14.10;99.90
54461;DHT22;69977;49.414;11.010;2023-05-20T05:13:54;14.10;99.90
54461;DHT22;69977;49.414;11.010;2023-05-20T05:16:23;14.10;99.90
54461;DHT22;69977;49.414;11.010;2023-05-20T05:18:49;14.10;99.90
54461;DHT22;69977;49.414;11.010;2023-05-20T05:21:15;14.20;99.90
54461;DHT22;69977;49.414;11.010;2023-05-20T05:23:41;14.20;99.90
54461;DHT22;69977;49.414;11.010;2023-05-20T05:26:07;14.20;99.90
54461;DHT22;69977;49.414;11.010;2023-05-20T05:28:33;14.20;99.90
54461;DHT22;69977;49.414;11.010;2023-05-20T05:30:59;14.20;99.90
54461;DHT22;69977;49.414;11.010;2023-05-20T05:33:27;14.30;99.90
54461;DHT22;69977;49.414;11.010;2023-05-20T05:35:53;14.40;99.90
54461;DHT22;69977;49.414;11.010;2023-05-20T05:38:21;14.50;99.90
54461;DHT22;69977;49.414;11.010;2023-05-20T05:40:47;14.60;99.90
54461;DHT22;69977;49.414;11.010;2023-05-20T05:43:14;14.60;99.90
54461;DHT22;69977;49.414;11.010;2023-05-20T05:45:40;14.60;99.90
54461;DHT22;69977;49.414;11.010;2023-05-20T05:48:07;14.70;99.90
54461;DHT22;69977;49.414;11.010;2023-05-20T05:50:34;14.70;99.90
54461;DHT22;69977;49.414;11.010;2023-05-20T05:53:00;14.70;99.90
54461;DHT22;69977;49.414;11.010;2023-05-20T05:55:26;14.80;99.90
54461;DHT22;69977;49.414;11.010;2023-05-20T05:57:53;14.80;99.90
54461;DHT22;69977;49.414;11.010;2023-05-20T06:00:19;14.90;99.90
54461;DHT22;69977;49.414;11.010;2023-05-20T06:02:46;14.90;99.90
54461;DHT22;69977;49.414;11.010;2023-05-20T06:05:20;15.00;99.90
54461;DHT22;69977;49.414;11.010;2023-05-20T06:07:46;15.10;99.90
54461;DHT22;69977;49.414;11.010;2023-05-20T06:10:11;15.10;99.90
54461;DHT22;69977;49.414;11.010;2023-05-20T06:12:37;15.10;99.90
54461;DHT22;69977;49.414;11.010;2023-05-20T06:15:03;15.10;99.90
54461;DHT22;69977;49.414;11.010;2023-05-20T06:17:29;15.10;99.90
54461;DHT22;69977;49.414;11.010;2023-05-20T06:19:55;15.10;99.90
54461;DHT22;69977;49.414;11.010;2023-05-20T06:22:21;15.20;99.90
54461;DHT22;69977;49.414;11.010;2023-05-20T06:24:47;15.20;99.90
54461;DHT22;69977;49.414;11.010;2023-05-20T06:27:12;15.30;99.90
54461;DHT22;69977;49.414;11.010;2023-05-20T06:29:38;15.20;99.90
54461;DHT22;69977;49.414;11.010;2023-05-20T06:32:04;15.30;99.90
54461;DHT22;69977;49.414;11.010;2023-05-20T06:34:31;15.30;99.90
54461;DHT22;69977;49.414;11.010;2023-05-20T06:36:57;15.40;99.90
54461;DHT22;69977;49.414;11.010;2023-05-20T06:39:23;15.30;99.90
54461;DHT22;69977;49.414;11.010;2023-05-20T06:41:49;15.40;99.90
54461;DHT22;69977;49.414;11.010;2023-05-20T06:44:26;15.40;99.90
54461;DHT22;69977;49.414;11.010;2023-05-20T06:46:57;15.50;99.90
54461;DHT22;69977;49.414;11.010;2023-05-20T06:49:23;15.60;99.90
54461;DHT22;69977;49.414;11.010;2023-05-20T06:51:49;15.60;99.90
54461;DHT22;69977;49.414;11.010;2023-05-20T06:54:16;15.50;99.90
54461;DHT22;69977;49.414;11.010;2023-05-20T06:56:42;15.60;99.90
54461;DHT22;69977;49.414;11.010;2023-05-20T06:59:09;15.60;99.90
54461;DHT22;69977;49.414;11.010;2023-05-20T07:01:36;15.70;99.90
54461;DHT22;69977;49.414;11.010;2023-05-20T07:04:02;15.80;99.90
54461;DHT22;69977;49.414;11.010;2023-05-20T07:06:28;15.80;99.90
54461;DHT22;69977;49.414;11.010;2023-05-20T07:08:56;15.80;99.90
54461;DHT22;69977;49.414;11.010;2023-05-20T07:11:22;15.90;99.90
54461;DHT22;69977;49.414;11.010;2023-05-20T07:13:48;15.90;99.90
54461;DHT22;69977;49.414;11.010;2023-05-20T07:16:14;16.00;99.90
54461;DHT22;69977;49.414;11.010;2023-05-20T07:18:43;16.00;99.90
54461;DHT22;69977;49.414;11.010;2023-05-20T07:21:09;16.10;99.90
54461;DHT22;69977;49.414;11.010;2023-05-20T07:24:01;16.10;99.90
54461;DHT22;69977;49.414;11.010;2023-05-20T07:26:27;16.20;99.90
54461;DHT22;69977;49.414;11.010;2023-05-20T07:28:53;16.30;99.90
54461;DHT22;69977;49.414;11.010;2023-05-20T07:31:19;16.40;99.90
54461;DHT22;69977;49.414;11.010;2023-05-20T07:33:45;16.40;99.90
54461;DHT22;69977;49.414;11.010;2023-05-20T07:36:11;16.50;99.90
54461;DHT22;69977;49.414;11.010;2023-05-20T07:38:38;16.50;99.90
54461;DHT22;69977;49.414;11.010;2023-05-20T07:41:06;16.50;99.90
54461;DHT22;69977;49.414;11.010;2023-05-20T07:43:33;16.50;99.90
54461;DHT22;69977;49.414;11.010;2023-05-20T07:46:00;16.60;99.90
54461;DHT22;69977;49.414;11.010;2023-05-20T07:48:26;16.80;99.90
54461;DHT22;69977;49.414;11.010;2023-05-20T07:50:52;16.80;99.90
54461;DHT22;69977;49.414;11.010;2023-05-20T07:53:18;16.80;99.90
54461;DHT22;69977;49.414;11.010;2023-05-20T07:55:44;16.90;99.90
54461;DHT22;69977;49.414;11.010;2023-05-20T07:58:10;17.00;99.90
54461;DHT22;69977;49.414;11.010;2023-05-20T08:00:36;17.00;99.90
54461;DHT22;69977;49.414;11.010;2023-05-20T08:03:05;17.10;99.90
54461;DHT22;69977;49.414;11.010;2023-05-20T08:05:54;17.10;99.90
54461;DHT22;69977;49.414;11.010;2023-05-20T08:08:20;17.30;99.90
54461;DHT22;69977;49.414;11.010;2023-05-20T08:10:53;17.40;99.90
54461;DHT22;69977;49.414;11.010;2023-05-20T08:13:23;17.40;99.90
54461;DHT22;69977;49.414;11.010;2023-05-20T08:15:54;17.40;99.90
54461;DHT22;69977;49.414;11.010;2023-05-20T08:18:20;17.50;99.90
54461;DHT22;69977;49.414;11.010;2023-05-20T08:20:46;17.50;99.90
54461;DHT22;69977;49.414;11.010;2023-05-20T08:23:12;17.60;99.90
54461;DHT22;69977;49.414;11.010;2023-05-20T08:25:38;17.70;99.90
54461;DHT22;69977;49.414;11.010;2023-05-20T08:28:05;17.80;99.90
54461;DHT22;69977;49.414;11.010;2023-05-20T08:30:34;17.90;99.90
54461;DHT22;69977;49.414;11.010;2023-05-20T08:33:00;17.80;99.90
54461;DHT22;69977;49.414;11.010;2023-05-20T08:35:27;17.90;99.90
54461;DHT22;69977;49.414;11.010;2023-05-20T08:37:53;18.00;99.90
54461;DHT22;69977;49.414;11.010;2023-05-20T08:40:19;18.20;99.90
54461;DHT22;69977;49.414;11.010;2023-05-20T08:42:47;18.20;99.90
54461;DHT22;69977;49.414;11.010;2023-05-20T08:45:17;18.30;99.90
54461;DHT22;69977;49.414;11.010;2023-05-20T08:47:43;18.40;99.90
54461;DHT22;69977;49.414;11.010;2023-05-20T08:50:11;18.50;99.90
54461;DHT22;69977;49.414;11.010;2023-05-20T08:52:42;18.30;99.90
54461;DHT22;69977;49.414;11.010;2023-05-20T08:57:59;18.60;99.90
54461;DHT22;69977;49.414;11.010;2023-05-20T09:00:24;18.70;99.90
54461;DHT22;69977;49.414;11.010;2023-05-20T09:02:54;18.90;99.90
54461;DHT22;69977;49.414;11.010;2023-05-20T09:05:20;19.00;99.90
54461;DHT22;69977;49.414;11.010;2023-05-20T09:07:47;19.10;99.90
54461;DHT22;69977;49.414;11.010;2023-05-20T09:10:13;19.10;99.90
54461;DHT22;69977;49.414;11.010;2023-05-20T09:12:39;19.20;99.90
54461;DHT22;69977;49.414;11.010;2023-05-20T09:15:06;19.10;99.90
54461;DHT22;69977;49.414;11.010;2023-05-20T09:17:34;19.30;99.90
54461;DHT22;69977;49.414;11.010;2023-05-20T09:20:05;19.30;99.90
54461;DHT22;69977;49.414;11.010;2023-05-20T09:22:32;19.40;99.90
54461;DHT22;69977;49.414;11.010;2023-05-20T09:24:58;19.50;99.90
54461;DHT22;69977;49.414;11.010;2023-05-20T09:27:24;19.50;99.90
54461;DHT22;69977;49.414;11.010;2023-05-20T09:29:50;19.60;99.90
54461;DHT22;69977;49.414;11.010;2023-05-20T09:32:17;19.80;99.90
54461;DHT22;69977;49.414;11.010;2023-05-20T09:34:46;20.00;99.90
54461;DHT22;69977;49.414;11.010;2023-05-20T09:37:13;20.00;99.90
54461;DHT22;69977;49.414;11.010;2023-05-20T09:43:05;20.00;99.90
54461;DHT22;69977;49.414;11.010;2023-05-20T09:45:06;20.00;99.90
54461;DHT22;69977;49.414;11.010;2023-05-20T09:47:36;20.00;99.90
54461;DHT22;69977;49.414;11.010;2023-05-20T09:50:05;20.20;99.90
54461;DHT22;69977;49.414;11.010;2023-05-20T09:52:33;20.40;99.90
54461;DHT22;69977;49.414;11.010;2023-05-20T09:55:01;20.50;99.90
54461;DHT22;69977;49.414;11.010;2023-05-20T09:57:35;20.60;99.90
54461;DHT22;69977;49.414;11.010;2023-05-20T10:00:03;20.80;99.90
54461;DHT22;69977;49.414;11.010;2023-05-20T10:02:58;21.00;99.90
54461;DHT22;69977;49.414;11.010;2023-05-20T10:05:31;21.30;99.90
54461;DHT22;69977;49.414;11.010;2023-05-20T10:08:26;21.30;99.90
54461;DHT22;69977;49.414;11.010;2023-05-20T10:14:14;21.30;99.90
54461;DHT22;69977;49.414;11.010;2023-05-20T10:17:00;21.20;99.90
54461;DHT22;69977;49.414;11.010;2023-05-20T10:19:33;21.20;99.90
54461;DHT22;69977;49.414;11.010;2023-05-20T10:22:03;21.20;99.90
54461;DHT22;69977;49.414;11.010;2023-05-20T10:24:34;21.40;99.90
54461;DHT22;69977;49.414;11.010;2023-05-20T10:27:04;21.50;99.90
54461;DHT22;69977;49.414;11.010;2023-05-20T10:29:45;21.50;99.90
54461;DHT22;69977;49.414;11.010;2023-05-20T10:32:23;21.50;99.90
54461;DHT22;69977;49.414;11.010;2023-05-20T10:34:50;21.70;99.90
54461;DHT22;69977;49.414;11.010;2023-05-20T10:37:23;21.80;99.90
54461;DHT22;69977;49.414;11.010;2023-05-20T10:40:05;22.20;99.90
54461;DHT22;69977;49.414;11.010;2023-05-20T10:42:36;22.70;99.90
54461;DHT22;69977;49.414;11.010;2023-05-20T10:45:02;22.30;99.90
54461;DHT22;69977;49.414;11.010;2023-05-20T10:47:28;22.70;99.90
54461;DHT22;69977;49.414;11.010;2023-05-20T10:49:55;22.60;99.90
54461;DHT22;69977;49.414;11.010;2023-05-20T10:52:21;22.60;99.90
54461;DHT22;69977;49.414;11.010;2023-05-20T10:54:58;22.70;99.90
54461;DHT22;69977;49.414;11.010;2023-05-20T10:57:28;23.00;99.90
54461;DHT22;69977;49.414;11.010;2023-05-20T10:59:57;23.60;99.90
54461;DHT22;69977;49.414;11.010;2023-05-20T11:02:24;24.60;99.90
54461;DHT22;69977;49.414;11.010;2023-05-20T11:04:55;24.50;99.90
54461;DHT22;69977;49.414;11.010;2023-05-20T11:07:25;25.00;99.90
54461;DHT22;69977;49.414;11.010;2023-05-20T11:09:52;26.40;99.90
54461;DHT22;69977;49.414;11.010;2023-05-20T11:12:20;25.90;99.90
54461;DHT22;69977;49.414;11.010;2023-05-20T11:14:47;27.20;99.90
54461;DHT22;69977;49.414;11.010;2023-05-20T11:17:13;25.80;99.90
54461;DHT22;69977;49.414;11.010;2023-05-20T11:19:40;24.70;99.90
54461;DHT22;69977;49.414;11.010;2023-05-20T11:22:07;23.80;99.90
54461;DHT22;69977;49.414;11.010;2023-05-20T11:24:32;24.10;99.90
54461;DHT22;69977;49.414;11.010;2023-05-20T11:27:01;24.70;99.90
54461;DHT22;69977;49.414;11.010;2023-05-20T11:29:27;24.90;99.90
54461;DHT22;69977;49.414;11.010;2023-05-20T11:31:58;25.20;99.90
54461;DHT22;69977;49.414;11.010;2023-05-20T11:34:23;25.80;99.90
54461;DHT22;69977;49.414;11.010;2023-05-20T11:36:58;25.80;99.90
54461;DHT22;69977;49.414;11.010;2023-05-20T11:39:25;24.90;99.90
54461;DHT22;69977;49.414;11.010;2023-05-20T11:41:54;24.10;99.90
54461;DHT22;69977;49.414;11.010;2023-05-20T11:44:20;24.50;99.90
54461;DHT22;69977;49.414;11.010;2023-05-20T11:46:47;25.20;99.90
54461;DHT22;69977;49.414;11.010;2023-05-20T11:49:13;25.20;99.90
54461;DHT22;69977;49.414;11.010;2023-05-20T11:51:39;25.50;99.90
54461;DHT22;69977;49.414;11.010;2023-05-20T11:54:06;25.80;99.90
54461;DHT22;69977;49.414;11.010;2023-05-20T11:56:33;26.10;99.90
54461;DHT22;69977;49.414;11.010;2023-05-20T11:59:02;26.20;99.90
54461;DHT22;69977;49.414;11.010;2023-05-20T12:01:30;26.30;99.90
54461;DHT22;69977;49.414;11.010;2023-05-20T12:03:58;26.50;99.90
54461;DHT22;69977;49.414;11.010;2023-05-20T12:06:24;26.30;99.90
54461;DHT22;69977;49.414;11.010;2023-05-20T12:08:50;26.30;99.90
54461;DHT22;69977;49.414;11.010;2023-05-20T12:11:16;26.30;99.90
54461;DHT22;69977;49.414;11.010;2023-05-20T12:13:42;26.50;99.90
54461;DHT22;69977;49.414;11.010;2023-05-20T12:16:08;26.30;99.90
54461;DHT22;69977;49.414;11.010;2023-05-20T12:18:33;26.10;99.90
54461;DHT22;69977;49.414;11.010;2023-05-20T12:21:00;25.90;99.90
54461;DHT22;69977;49.414;11.010;2023-05-20T12:23:25;25.80;99.90
54461;DHT22;69977;49.414;11.010;2023-05-20T12:25:51;25.70;99.90
54461;DHT22;69977;49.414;11.010;2023-05-20T12:28:17;25.40;99.90
54461;DHT22;69977;49.414;11.010;2023-05-20T12:30:43;25.20;99.90
54461;DHT22;69977;49.414;11.010;2023-05-20T12:33:09;25.10;99.90
54461;DHT22;69977;49.414;11.010;2023-05-20T12:35:42;25.50;99.90
54461;DHT22;69977;49.414;11.010;2023-05-20T12:38:08;25.80;99.90
54461;DHT22;69977;49.414;11.010;2023-05-20T12:40:34;26.10;99.90
54461;DHT22;69977;49.414;11.010;2023-05-20T12:43:02;27.00;99.90
54461;DHT22;69977;49.414;11.010;2023-05-20T12:45:28;27.00;99.90
54461;DHT22;69977;49.414;11.010;2023-05-20T12:47:54;27.10;99.90
54461;DHT22;69977;49.414;11.010;2023-05-20T12:50:21;27.30;98.80
54461;DHT22;69977;49.414;11.010;2023-05-20T12:52:47;28.40;97.10
54461;DHT22;69977;49.414;11.010;2023-05-20T12:55:13;28.70;97.60
54461;DHT22;69977;49.414;11.010;2023-05-20T12:57:40;28.10;96.70
54461;DHT22;69977;49.414;11.010;2023-05-20T13:00:07;27.30;98.50
54461;DHT22;69977;49.414;11.010;2023-05-20T13:02:33;27.00;98.90
54461;DHT22;69977;49.414;11.010;2023-05-20T13:04:59;28.00;98.70
54461;DHT22;69977;49.414;11.010;2023-05-20T13:07:25;28.80;96.70
54461;DHT22;69977;49.414;11.010;2023-05-20T13:09:51;28.90;95.50
54461;DHT22;69977;49.414;11.010;2023-05-20T13:12:17;29.30;94.30
54461;DHT22;69977;49.414;11.010;2023-05-20T13:14:43;28.20;94.20
54461;DHT22;69977;49.414;11.010;2023-05-20T13:17:10;26.80;96.00
54461;DHT22;69977;49.414;11.010;2023-05-20T13:19:36;26.20;98.60
54461;DHT22;69977;49.414;11.010;2023-05-20T13:22:03;26.10;98.90
54461;DHT22;69977;49.414;11.010;2023-05-20T13:24:29;26.00;98.80
54461;DHT22;69977;49.414;11.010;2023-05-20T13:26:55;26.00;99.30
54461;DHT22;69977;49.414;11.010;2023-05-20T13:29:21;25.50;99.90
54461;DHT22;69977;49.414;11.010;2023-05-20T13:31:47;25.30;99.90
54461;DHT22;69977;49.414;11.010;2023-05-20T13:34:13;25.10;99.90
54461;DHT22;69977;49.414;11.010;2023-05-20T13:36:38;25.00;99.90
54461;DHT22;69977;49.414;11.010;2023-05-20T13:39:05;25.10;99.90
54461;DHT22;69977;49.414;11.010;2023-05-20T13:41:31;25.00;99.90
54461;DHT22;69977;49.414;11.010;2023-05-20T13:43:57;25.10;99.90
54461;DHT22;69977;49.414;11.010;2023-05-20T13:46:23;25.10;99.90
54461;DHT22;69977;49.414;11.010;2023-05-20T13:48:49;25.10;99.90
54461;DHT22;69977;49.414;11.010;2023-05-20T13:51:15;25.00;99.90
54461;DHT22;69977;49.414;11.010;2023-05-20T13:53:40;24.80;99.90
54461;DHT22;69977;49.414;11.010;2023-05-20T13:56:06;24.80;99.90
54461;DHT22;69977;49.414;11.010;2023-05-20T13:58:35;24.80;99.90
54461;DHT22;69977;49.414;11.010;2023-05-20T14:01:02;24.90;99.90
54461;DHT22;69977;49.414;11.010;2023-05-20T14:03:29;24.80;99.90
54461;DHT22;69977;49.414;11.010;2023-05-20T14:05:56;24.70;99.90
54461;DHT22;69977;49.414;11.010;2023-05-20T14:08:22;24.70;99.90
54461;DHT22;69977;49.414;11.010;2023-05-20T14:10:48;24.70;99.90
54461;DHT22;69977;49.414;11.010;2023-05-20T14:13:13;24.40;99.90
54461;DHT22;69977;49.414;11.010;2023-05-20T14:15:39;24.20;99.90
54461;DHT22;69977;49.414;11.010;2023-05-20T14:18:05;24.00;99.90
54461;DHT22;69977;49.414;11.010;2023-05-20T14:20:31;24.00;99.90
54461;DHT22;69977;49.414;11.010;2023-05-20T14:22:57;23.90;99.90
54461;DHT22;69977;49.414;11.010;2023-05-20T14:25:25;23.90;99.90
54461;DHT22;69977;49.414;11.010;2023-05-20T14:27:52;23.90;99.90
54461;DHT22;69977;49.414;11.010;2023-05-20T14:30:17;23.90;99.90
54461;DHT22;69977;49.414;11.010;2023-05-20T14:32:43;24.10;99.90
54461;DHT22;69977;49.414;11.010;2023-05-20T14:35:09;24.10;99.90
54461;DHT22;69977;49.414;11.010;2023-05-20T14:37:35;24.20;99.90
54461;DHT22;69977;49.414;11.010;2023-05-20T14:40:03;24.20;99.90
54461;DHT22;69977;49.414;11.010;2023-05-20T14:42:29;24.30;99.90
54461;DHT22;69977;49.414;11.010;2023-05-20T14:44:55;24.40;99.90
54461;DHT22;69977;49.414;11.010;2023-05-20T14:47:21;24.50;99.90
54461;DHT22;69977;49.414;11.010;2023-05-20T14:49:47;24.70;99.90
54461;DHT22;69977;49.414;11.010;2023-05-20T14:52:15;25.00;99.90
54461;DHT22;69977;49.414;11.010;2023-05-20T14:54:41;25.20;99.90
54461;DHT22;69977;49.414;11.010;2023-05-20T14:57:07;25.40;99.90
54461;DHT22;69977;49.414;11.010;2023-05-20T14:59:33;25.70;99.90
54461;DHT22;69977;49.414;11.010;2023-05-20T15:01:59;26.00;99.90
54461;DHT22;69977;49.414;11.010;2023-05-20T15:04:26;26.20;99.90
54461;DHT22;69977;49.414;11.010;2023-05-20T15:06:51;26.40;99.90
54461;DHT22;69977;49.414;11.010;2023-05-20T15:09:18;26.60;98.90
54461;DHT22;69977;49.414;11.010;2023-05-20T15:11:44;26.70;98.10
54461;DHT22;69977;49.414;11.010;2023-05-20T15:14:09;26.80;97.80
54461;DHT22;69977;49.414;11.010;2023-05-20T15:16:35;26.90;97.60
54461;DHT22;69977;49.414;11.010;2023-05-20T15:19:01;26.50;96.40
54461;DHT22;69977;49.414;11.010;2023-05-20T15:21:27;26.30;97.60
54461;DHT22;69977;49.414;11.010;2023-05-20T15:23:52;26.40;97.10